sensor_id;sensor_type;location;lat;lon;timestamp;temperature;humidity
71304;DHT22;59091;47.446;19.148;2022-10-16T00:00:19;16.28;64.58
71304;DHT22;59091;47.446;19.148;2022-10-16T00:02:44;16.25;64.82
71304;DHT22;59091;47.446;19.148;2022-10-16T00:05:10;16.24;64.61
71304;DHT22;59091;47.446;19.148;2022-10-16T00:07:35;16.25;64.28
71304;DHT22;59091;47.446;19.148;2022-10-16T00:10:01;16.25;64.25
71304;DHT22;59091;47.446;19.148;2022-10-16T00:12:26;16.24;64.19
71304;DHT22;59091;47.446;19.148;2022-10-16T00:14:51;16.21;64.44
71304;DHT22;59091;47.446;19.148;2022-10-16T00:17:17;16.25;64.28
71304;DHT22;59091;47.446;19.148;2022-10-16T00:19:42;16.21;64.29
71304;DHT22;59091;47.446;19.148;2022-10-16T00:22:08;16.23;64.50
71304;DHT22;59091;47.446;19.148;2022-10-16T00:24:33;16.18;64.26
71304;DHT22;59091;47.446;19.148;2022-10-16T00:26:58;16.14;64.01
71304;DHT22;59091;47.446;19.148;2022-10-16T00:29:24;16.14;64.56
71304;DHT22;59091;47.446;19.148;2022-10-16T00:31:49;16.10;64.20
71304;DHT22;59091;47.446;19.148;2022-10-16T00:34:15;16.12;64.26
71304;DHT22;59091;47.446;19.148;2022-10-16T00:36:40;16.10;64.37
71304;DHT22;59091;47.446;19.148;2022-10-16T00:39:05;16.09;64.07
71304;DHT22;59091;47.446;19.148;2022-10-16T00:41:31;16.10;64.09
71304;DHT22;59091;47.446;19.148;2022-10-16T00:44:02;16.09;63.94
71304;DHT22;59091;47.446;19.148;2022-10-16T00:46:29;16.10;64.02
71304;DHT22;59091;47.446;19.148;2022-10-16T00:49:03;16.09;63.63
71304;DHT22;59091;47.446;19.148;2022-10-16T00:51:35;16.06;63.61
71304;DHT22;59091;47.446;19.148;2022-10-16T00:54:03;16.07;63.88
71304;DHT22;59091;47.446;19.148;2022-10-16T00:56:29;16.07;64.03
71304;DHT22;59091;47.446;19.148;2022-10-16T00:58:54;16.03;63.96
71304;DHT22;59091;47.446;19.148;2022-10-16T01:01:20;16.04;63.83
71304;DHT22;59091;47.446;19.148;2022-10-16T01:03:45;16.02;64.12
71304;DHT22;59091;47.446;19.148;2022-10-16T01:09:14;15.94;64.08
71304;DHT22;59091;47.446;19.148;2022-10-16T01:11:54;15.96;64.09
71304;DHT22;59091;47.446;19.148;2022-10-16T01:14:31;15.92;64.14
71304;DHT22;59091;47.446;19.148;2022-10-16T01:17:15;15.90;64.19
71304;DHT22;59091;47.446;19.148;2022-10-16T01:22:19;15.75;64.40
71304;DHT22;59091;47.446;19.148;2022-10-16T01:24:48;15.72;64.78
71304;DHT22;59091;47.446;19.148;2022-10-16T01:32:33;15.49;64.71
71304;DHT22;59091;47.446;19.148;2022-10-16T01:35:06;15.39;64.99
71304;DHT22;59091;47.446;19.148;2022-10-16T01:37:48;15.31;65.03
71304;DHT22;59091;47.446;19.148;2022-10-16T01:40:16;15.27;64.99
71304;DHT22;59091;47.446;19.148;2022-10-16T01:42:47;15.18;65.15
71304;DHT22;59091;47.446;19.148;2022-10-16T01:45:15;15.07;65.57
71304;DHT22;59091;47.446;19.148;2022-10-16T01:47:44;15.05;65.61
71304;DHT22;59091;47.446;19.148;2022-10-16T01:50:12;14.98;65.60
71304;DHT22;59091;47.446;19.148;2022-10-16T01:52:41;14.91;65.54
71304;DHT22;59091;47.446;19.148;2022-10-16T01:55:09;14.88;65.70
71304;DHT22;59091;47.446;19.148;2022-10-16T01:57:38;14.81;65.67
71304;DHT22;59091;47.446;19.148;2022-10-16T02:00:09;14.76;65.54
71304;DHT22;59091;47.446;19.148;2022-10-16T02:02:36;14.71;65.48
71304;DHT22;59091;47.446;19.148;2022-10-16T02:07:37;14.59;65.75
71304;DHT22;59091;47.446;19.148;2022-10-16T02:10:03;14.55;65.77
71304;DHT22;59091;47.446;19.148;2022-10-16T02:12:33;14.49;66.01
71304;DHT22;59091;47.446;19.148;2022-10-16T02:14:59;14.44;66.34
71304;DHT22;59091;47.446;19.148;2022-10-16T02:17:24;14.40;66.37
71304;DHT22;59091;47.446;19.148;2022-10-16T02:19:52;14.29;66.43
71304;DHT22;59091;47.446;19.148;2022-10-16T02:22:27;14.25;66.38
71304;DHT22;59091;47.446;19.148;2022-10-16T02:25:06;14.16;66.46
71304;DHT22;59091;47.446;19.148;2022-10-16T02:27:40;14.15;66.88
71304;DHT22;59091;47.446;19.148;2022-10-16T02:30:19;13.95;67.38
71304;DHT22;59091;47.446;19.148;2022-10-16T02:32:47;14.01;67.57
71304;DHT22;59091;47.446;19.148;2022-10-16T02:35:15;13.99;67.49
71304;DHT22;59091;47.446;19.148;2022-10-16T02:37:42;13.98;67.98
71304;DHT22;59091;47.446;19.148;2022-10-16T02:40:08;13.91;68.05
71304;DHT22;59091;47.446;19.148;2022-10-16T02:42:38;13.88;68.00
71304;DHT22;59091;47.446;19.148;2022-10-16T02:45:05;13.82;68.16
71304;DHT22;59091;47.446;19.148;2022-10-16T02:47:30;13.86;68.19
71304;DHT22;59091;47.446;19.148;2022-10-16T02:49:56;13.79;68.32
71304;DHT22;59091;47.446;19.148;2022-10-16T02:52:21;13.75;68.52
71304;DHT22;59091;47.446;19.148;2022-10-16T02:54:46;13.75;68.61
71304;DHT22;59091;47.446;19.148;2022-10-16T02:57:12;13.74;68.56
71304;DHT22;59091;47.446;19.148;2022-10-16T02:59:37;13.71;68.39
71304;DHT22;59091;47.446;19.148;2022-10-16T03:02:03;13.68;68.42
71304;DHT22;59091;47.446;19.148;2022-10-16T03:04:28;13.64;68.73
71304;DHT22;59091;47.446;19.148;2022-10-16T03:06:54;13.61;69.38
71304;DHT22;59091;47.446;19.148;2022-10-16T03:09:19;13.51;70.32
71304;DHT22;59091;47.446;19.148;2022-10-16T03:11:44;13.48;71.17
71304;DHT22;59091;47.446;19.148;2022-10-16T03:14:10;13.46;71.21
71304;DHT22;59091;47.446;19.148;2022-10-16T03:16:35;13.41;71.43
71304;DHT22;59091;47.446;19.148;2022-10-16T03:19:01;13.36;71.24
71304;DHT22;59091;47.446;19.148;2022-10-16T03:21:27;13.31;71.94
71304;DHT22;59091;47.446;19.148;2022-10-16T03:23:52;13.28;72.36
71304;DHT22;59091;47.446;19.148;2022-10-16T03:26:18;13.16;71.99
71304;DHT22;59091;47.446;19.148;2022-10-16T03:28:43;13.19;71.56
71304;DHT22;59091;47.446;19.148;2022-10-16T03:31:08;13.19;71.22
71304;DHT22;59091;47.446;19.148;2022-10-16T03:33:34;13.11;71.21
71304;DHT22;59091;47.446;19.148;2022-10-16T03:35:59;13.13;71.32
71304;DHT22;59091;47.446;19.148;2022-10-16T03:38:25;13.07;71.44
71304;DHT22;59091;47.446;19.148;2022-10-16T03:40:50;13.06;71.74
71304;DHT22;59091;47.446;19.148;2022-10-16T03:43:16;13.03;71.48
71304;DHT22;59091;47.446;19.148;2022-10-16T03:45:41;13.03;71.88
71304;DHT22;59091;47.446;19.148;2022-10-16T03:48:07;12.97;71.73
71304;DHT22;59091;47.446;19.148;2022-10-16T03:50:32;12.95;71.34
71304;DHT22;59091;47.446;19.148;2022-10-16T03:52:58;12.93;71.46
71304;DHT22;59091;47.446;19.148;2022-10-16T03:55:23;12.93;71.44
71304;DHT22;59091;47.446;19.148;2022-10-16T03:57:48;12.90;71.33
71304;DHT22;59091;47.446;19.148;2022-10-16T04:00:14;12.89;71.23
71304;DHT22;59091;47.446;19.148;2022-10-16T04:02:39;12.90;71.11
71304;DHT22;59091;47.446;19.148;2022-10-16T04:05:06;12.85;71.17
71304;DHT22;59091;47.446;19.148;2022-10-16T04:07:31;12.83;71.27
71304;DHT22;59091;47.446;19.148;2022-10-16T04:09:57;12.79;71.29
71304;DHT22;59091;47.446;19.148;2022-10-16T04:12:24;12.76;71.31
71304;DHT22;59091;47.446;19.148;2022-10-16T04:14:49;12.68;71.36
71304;DHT22;59091;47.446;19.148;2022-10-16T04:17:15;12.66;71.33
71304;DHT22;59091;47.446;19.148;2022-10-16T04:19:41;12.65;71.24
71304;DHT22;59091;47.446;19.148;2022-10-16T04:22:06;12.60;71.30
71304;DHT22;59091;47.446;19.148;2022-10-16T04:24:32;12.55;71.56
71304;DHT22;59091;47.446;19.148;2022-10-16T04:26:57;12.58;71.26
71304;DHT22;59091;47.446;19.148;2022-10-16T04:29:22;12.52;71.24
71304;DHT22;59091;47.446;19.148;2022-10-16T04:31:48;12.46;71.35
71304;DHT22;59091;47.446;19.148;2022-10-16T04:34:13;12.42;71.58
71304;DHT22;59091;47.446;19.148;2022-10-16T04:36:39;12.41;71.67
71304;DHT22;59091;47.446;19.148;2022-10-16T04:39:04;12.35;71.49
71304;DHT22;59091;47.446;19.148;2022-10-16T04:41:29;12.32;71.62
71304;DHT22;59091;47.446;19.148;2022-10-16T04:43:55;12.32;71.78
71304;DHT22;59091;47.446;19.148;2022-10-16T04:46:20;12.29;71.67
71304;DHT22;59091;47.446;19.148;2022-10-16T04:48:45;12.28;71.65
71304;DHT22;59091;47.446;19.148;2022-10-16T04:51:12;12.25;71.81
71304;DHT22;59091;47.446;19.148;2022-10-16T04:53:37;12.20;72.02
71304;DHT22;59091;47.446;19.148;2022-10-16T04:56:02;12.21;71.95
71304;DHT22;59091;47.446;19.148;2022-10-16T04:58:28;12.16;72.00
71304;DHT22;59091;47.446;19.148;2022-10-16T05:00:53;12.14;71.83
71304;DHT22;59091;47.446;19.148;2022-10-16T05:03:19;12.14;72.11
71304;DHT22;59091;47.446;19.148;2022-10-16T05:05:45;12.11;72.22
71304;DHT22;59091;47.446;19.148;2022-10-16T05:08:15;12.11;71.89
71304;DHT22;59091;47.446;19.148;2022-10-16T05:10:41;12.13;71.83
71304;DHT22;59091;47.446;19.148;2022-10-16T05:13:07;12.04;72.18
71304;DHT22;59091;47.446;19.148;2022-10-16T05:15:32;12.08;72.12
71304;DHT22;59091;47.446;19.148;2022-10-16T05:17:58;12.08;72.17
71304;DHT22;59091;47.446;19.148;2022-10-16T05:20:23;12.11;72.41
71304;DHT22;59091;47.446;19.148;2022-10-16T05:22:49;12.11;72.46
71304;DHT22;59091;47.446;19.148;2022-10-16T05:25:14;12.16;72.52
71304;DHT22;59091;47.446;19.148;2022-10-16T05:27:40;12.14;72.41
71304;DHT22;59091;47.446;19.148;2022-10-16T05:30:06;12.17;72.37
71304;DHT22;59091;47.446;19.148;2022-10-16T05:32:31;12.18;72.20
71304;DHT22;59091;47.446;19.148;2022-10-16T05:34:57;12.21;72.13
71304;DHT22;59091;47.446;19.148;2022-10-16T05:37:25;12.25;72.28
71304;DHT22;59091;47.446;19.148;2022-10-16T05:39:50;12.25;72.33
71304;DHT22;59091;47.446;19.148;2022-10-16T05:42:16;12.28;72.50
71304;DHT22;59091;47.446;19.148;2022-10-16T05:44:41;12.50;78.49
71304;DHT22;59091;47.446;19.148;2022-10-16T05:47:07;12.53;73.66
71304;DHT22;59091;47.446;19.148;2022-10-16T05:49:32;12.59;72.05
71304;DHT22;59091;47.446;19.148;2022-10-16T05:51:57;12.55;71.33
71304;DHT22;59091;47.446;19.148;2022-10-16T05:54:23;12.55;71.59
71304;DHT22;59091;47.446;19.148;2022-10-16T05:56:48;12.55;71.12
71304;DHT22;59091;47.446;19.148;2022-10-16T05:59:14;12.62;71.58
71304;DHT22;59091;47.446;19.148;2022-10-16T06:01:39;12.65;70.84
71304;DHT22;59091;47.446;19.148;2022-10-16T06:04:05;12.65;70.71
71304;DHT22;59091;47.446;19.148;2022-10-16T06:06:30;12.63;70.75
71304;DHT22;59091;47.446;19.148;2022-10-16T06:08:56;12.75;70.43
71304;DHT22;59091;47.446;19.148;2022-10-16T06:11:25;12.75;70.28
71304;DHT22;59091;47.446;19.148;2022-10-16T06:13:55;12.79;70.29
71304;DHT22;59091;47.446;19.148;2022-10-16T06:16:22;12.85;70.45
71304;DHT22;59091;47.446;19.148;2022-10-16T06:18:47;12.97;70.11
71304;DHT22;59091;47.446;19.148;2022-10-16T06:21:18;12.95;71.01
71304;DHT22;59091;47.446;19.148;2022-10-16T06:23:44;13.03;70.20
71304;DHT22;59091;47.446;19.148;2022-10-16T06:26:16;13.06;69.95
71304;DHT22;59091;47.446;19.148;2022-10-16T06:28:42;13.11;69.73
71304;DHT22;59091;47.446;19.148;2022-10-16T06:31:09;13.17;69.36
71304;DHT22;59091;47.446;19.148;2022-10-16T06:33:35;13.19;69.49
71304;DHT22;59091;47.446;19.148;2022-10-16T06:38:28;13.23;69.34
71304;DHT22;59091;47.446;19.148;2022-10-16T06:40:53;13.43;74.47
71304;DHT22;59091;47.446;19.148;2022-10-16T06:43:19;13.57;70.95
71304;DHT22;59091;47.446;19.148;2022-10-16T06:45:51;13.62;68.76
71304;DHT22;59091;47.446;19.148;2022-10-16T06:48:16;13.70;68.42
71304;DHT22;59091;47.446;19.148;2022-10-16T06:50:41;13.74;68.09
71304;DHT22;59091;47.446;19.148;2022-10-16T06:53:07;13.78;71.30
71304;DHT22;59091;47.446;19.148;2022-10-16T06:55:32;13.74;68.11
71304;DHT22;59091;47.446;19.148;2022-10-16T06:57:58;13.83;67.67
71304;DHT22;59091;47.446;19.148;2022-10-16T07:00:23;13.79;67.40
71304;DHT22;59091;47.446;19.148;2022-10-16T07:02:49;13.81;67.76
71304;DHT22;59091;47.446;19.148;2022-10-16T07:05:15;13.82;68.56
71304;DHT22;59091;47.446;19.148;2022-10-16T07:07:40;13.82;67.94
71304;DHT22;59091;47.446;19.148;2022-10-16T07:10:06;13.88;67.27
71304;DHT22;59091;47.446;19.148;2022-10-16T07:12:31;13.99;67.39
71304;DHT22;59091;47.446;19.148;2022-10-16T07:14:56;14.08;66.94
71304;DHT22;59091;47.446;19.148;2022-10-16T07:17:22;14.25;74.99
71304;DHT22;59091;47.446;19.148;2022-10-16T07:19:47;14.44;69.23
71304;DHT22;59091;47.446;19.148;2022-10-16T07:22:13;14.44;65.95
71304;DHT22;59091;47.446;19.148;2022-10-16T07:24:38;14.37;68.26
71304;DHT22;59091;47.446;19.148;2022-10-16T07:27:04;14.26;66.51
71304;DHT22;59091;47.446;19.148;2022-10-16T07:29:29;14.13;66.09
71304;DHT22;59091;47.446;19.148;2022-10-16T07:31:54;14.34;65.80
71304;DHT22;59091;47.446;19.148;2022-10-16T07:34:20;14.46;65.73
71304;DHT22;59091;47.446;19.148;2022-10-16T07:36:49;14.49;65.72
71304;DHT22;59091;47.446;19.148;2022-10-16T07:39:15;14.37;65.52
71304;DHT22;59091;47.446;19.148;2022-10-16T07:41:40;14.49;65.16
71304;DHT22;59091;47.446;19.148;2022-10-16T07:44:06;14.60;65.13
71304;DHT22;59091;47.446;19.148;2022-10-16T07:46:32;14.94;73.31
71304;DHT22;59091;47.446;19.148;2022-10-16T07:48:59;15.07;67.87
71304;DHT22;59091;47.446;19.148;2022-10-16T07:51:25;15.25;69.83
71304;DHT22;59091;47.446;19.148;2022-10-16T07:53:50;15.22;64.91
71304;DHT22;59091;47.446;19.148;2022-10-16T07:56:17;15.12;63.35
71304;DHT22;59091;47.446;19.148;2022-10-16T07:58:43;15.21;63.52
71304;DHT22;59091;47.446;19.148;2022-10-16T08:01:11;15.14;63.53
71304;DHT22;59091;47.446;19.148;2022-10-16T08:03:38;15.24;74.32
71304;DHT22;59091;47.446;19.148;2022-10-16T08:06:04;16.16;74.24
71304;DHT22;59091;47.446;19.148;2022-10-16T08:08:30;16.61;67.84
71304;DHT22;59091;47.446;19.148;2022-10-16T08:10:56;16.51;60.31
71304;DHT22;59091;47.446;19.148;2022-10-16T08:13:21;16.38;61.07
71304;DHT22;59091;47.446;19.148;2022-10-16T08:15:47;16.30;60.63
71304;DHT22;59091;47.446;19.148;2022-10-16T08:18:14;16.16;60.44
71304;DHT22;59091;47.446;19.148;2022-10-16T08:20:40;16.00;62.46
71304;DHT22;59091;47.446;19.148;2022-10-16T08:23:06;15.76;62.08
71304;DHT22;59091;47.446;19.148;2022-10-16T08:25:35;15.89;64.36
71304;DHT22;59091;47.446;19.148;2022-10-16T08:28:04;16.00;62.60
71304;DHT22;59091;47.446;19.148;2022-10-16T08:30:31;15.76;62.30
71304;DHT22;59091;47.446;19.148;2022-10-16T08:32:56;15.93;61.55
71304;DHT22;59091;47.446;19.148;2022-10-16T08:35:23;15.85;61.32
71304;DHT22;59091;47.446;19.148;2022-10-16T08:37:48;15.87;60.35
71304;DHT22;59091;47.446;19.148;2022-10-16T08:40:41;15.92;61.78
71304;DHT22;59091;47.446;19.148;2022-10-16T08:46:02;16.02;60.78
71304;DHT22;59091;47.446;19.148;2022-10-16T08:48:48;16.27;63.07
71304;DHT22;59091;47.446;19.148;2022-10-16T08:51:35;16.41;60.08
71304;DHT22;59091;47.446;19.148;2022-10-16T08:54:06;16.40;60.04
71304;DHT22;59091;47.446;19.148;2022-10-16T08:56:34;16.35;60.20
71304;DHT22;59091;47.446;19.148;2022-10-16T08:58:59;16.45;59.50
71304;DHT22;59091;47.446;19.148;2022-10-16T09:01:36;16.44;60.01
71304;DHT22;59091;47.446;19.148;2022-10-16T09:04:34;16.44;59.62
71304;DHT22;59091;47.446;19.148;2022-10-16T09:12:43;17.14;66.72
71304;DHT22;59091;47.446;19.148;2022-10-16T09:18:12;17.11;57.94
71304;DHT22;59091;47.446;19.148;2022-10-16T09:20:55;17.11;57.90
71304;DHT22;59091;47.446;19.148;2022-10-16T09:23:26;17.16;57.70
71304;DHT22;59091;47.446;19.148;2022-10-16T09:25:53;17.22;57.71
71304;DHT22;59091;47.446;19.148;2022-10-16T09:28:19;17.20;57.65
71304;DHT22;59091;47.446;19.148;2022-10-16T09:30:45;17.23;58.18
71304;DHT22;59091;47.446;19.148;2022-10-16T09:33:12;17.18;58.50
71304;DHT22;59091;47.446;19.148;2022-10-16T09:35:41;17.25;58.64
71304;DHT22;59091;47.446;19.148;2022-10-16T09:38:07;17.27;58.31
71304;DHT22;59091;47.446;19.148;2022-10-16T09:40:38;17.27;57.76
71304;DHT22;59091;47.446;19.148;2022-10-16T09:46:06;17.36;56.79
71304;DHT22;59091;47.446;19.148;2022-10-16T09:48:59;17.37;57.12
71304;DHT22;59091;47.446;19.148;2022-10-16T09:51:36;17.50;58.34
71304;DHT22;59091;47.446;19.148;2022-10-16T09:54:15;17.67;57.27
71304;DHT22;59091;47.446;19.148;2022-10-16T09:56:41;17.74;56.74
71304;DHT22;59091;47.446;19.148;2022-10-16T09:59:15;17.76;56.25
71304;DHT22;59091;47.446;19.148;2022-10-16T10:01:53;17.83;57.06
71304;DHT22;59091;47.446;19.148;2022-10-16T10:04:22;17.98;56.74
71304;DHT22;59091;47.446;19.148;2022-10-16T10:06:52;18.32;66.81
71304;DHT22;59091;47.446;19.148;2022-10-16T10:11:59;18.80;57.09
71304;DHT22;59091;47.446;19.148;2022-10-16T10:14:34;18.80;54.87
71304;DHT22;59091;47.446;19.148;2022-10-16T10:19:52;18.68;53.82
71304;DHT22;59091;47.446;19.148;2022-10-16T10:22:40;18.68;55.40
71304;DHT22;59091;47.446;19.148;2022-10-16T10:30:18;18.89;54.17
71304;DHT22;59091;47.446;19.148;2022-10-16T10:40:51;19.07;53.96
71304;DHT22;59091;47.446;19.148;2022-10-16T10:46:02;19.27;52.76
71304;DHT22;59091;47.446;19.148;2022-10-16T10:48:54;19.38;52.68
71304;DHT22;59091;47.446;19.148;2022-10-16T10:51:31;19.43;52.34
71304;DHT22;59091;47.446;19.148;2022-10-16T10:54:17;19.50;52.28
71304;DHT22;59091;47.446;19.148;2022-10-16T10:56:58;19.47;52.25
71304;DHT22;59091;47.446;19.148;2022-10-16T10:59:54;19.43;51.14
71304;DHT22;59091;47.446;19.148;2022-10-16T11:02:33;19.65;51.62
71304;DHT22;59091;47.446;19.148;2022-10-16T11:05:49;19.72;51.17
71304;DHT22;59091;47.446;19.148;2022-10-16T11:11:22;19.78;50.95
71304;DHT22;59091;47.446;19.148;2022-10-16T11:14:42;19.78;50.77
71304;DHT22;59091;47.446;19.148;2022-10-16T11:24:53;19.92;50.49
71304;DHT22;59091;47.446;19.148;2022-10-16T11:27:27;19.93;49.83
71304;DHT22;59091;47.446;19.148;2022-10-16T11:29:59;19.98;51.00
71304;DHT22;59091;47.446;19.148;2022-10-16T11:32:33;20.05;51.01
71304;DHT22;59091;47.446;19.148;2022-10-16T11:35:00;20.04;50.77
71304;DHT22;59091;47.446;19.148;2022-10-16T11:37:32;20.19;50.91
71304;DHT22;59091;47.446;19.148;2022-10-16T11:40:06;20.13;50.82
71304;DHT22;59091;47.446;19.148;2022-10-16T11:42:46;20.23;51.47
71304;DHT22;59091;47.446;19.148;2022-10-16T11:47:45;20.18;53.84
71304;DHT22;59091;47.446;19.148;2022-10-16T11:50:43;20.37;51.29
71304;DHT22;59091;47.446;19.148;2022-10-16T11:55:48;20.53;50.39
71304;DHT22;59091;47.446;19.148;2022-10-16T11:58:15;20.59;50.89
71304;DHT22;59091;47.446;19.148;2022-10-16T12:06:33;20.63;50.75
71304;DHT22;59091;47.446;19.148;2022-10-16T12:09:00;20.71;49.93
71304;DHT22;59091;47.446;19.148;2022-10-16T12:13:52;20.76;48.80
71304;DHT22;59091;47.446;19.148;2022-10-16T12:16:28;20.77;51.38
71304;DHT22;59091;47.446;19.148;2022-10-16T12:19:12;20.90;56.77
71304;DHT22;59091;47.446;19.148;2022-10-16T12:21:37;20.92;50.08
71304;DHT22;59091;47.446;19.148;2022-10-16T12:24:03;20.94;53.63
71304;DHT22;59091;47.446;19.148;2022-10-16T12:26:32;20.90;50.81
71304;DHT22;59091;47.446;19.148;2022-10-16T12:29:17;20.90;54.93
71304;DHT22;59091;47.446;19.148;2022-10-16T12:31:48;20.80;49.47
71304;DHT22;59091;47.446;19.148;2022-10-16T12:34:23;20.88;48.67
71304;DHT22;59091;47.446;19.148;2022-10-16T12:36:52;20.94;46.95
71304;DHT22;59091;47.446;19.148;2022-10-16T12:39:24;20.95;48.26
71304;DHT22;59091;47.446;19.148;2022-10-16T12:42:22;21.01;48.43
71304;DHT22;59091;47.446;19.148;2022-10-16T12:44:48;21.12;49.01
71304;DHT22;59091;47.446;19.148;2022-10-16T12:49:55;21.17;47.16
71304;DHT22;59091;47.446;19.148;2022-10-16T12:54:59;21.24;47.22
71304;DHT22;59091;47.446;19.148;2022-10-16T13:08:38;21.17;47.13
71304;DHT22;59091;47.446;19.148;2022-10-16T13:14:23;21.14;52.57
71304;DHT22;59091;47.446;19.148;2022-10-16T13:30:18;21.43;47.75
71304;DHT22;59091;47.446;19.148;2022-10-16T13:32:49;21.43;47.95
71304;DHT22;59091;47.446;19.148;2022-10-16T13:35:21;21.43;49.58
71304;DHT22;59091;47.446;19.148;2022-10-16T13:37:46;21.38;47.05
71304;DHT22;59091;47.446;19.148;2022-10-16T13:40:19;21.42;47.36
71304;DHT22;59091;47.446;19.148;2022-10-16T13:42:45;21.45;48.71
71304;DHT22;59091;47.446;19.148;2022-10-16T13:45:21;21.38;48.24
71304;DHT22;59091;47.446;19.148;2022-10-16T13:47:47;21.45;49.28
71304;DHT22;59091;47.446;19.148;2022-10-16T13:50:15;21.51;49.22
71304;DHT22;59091;47.446;19.148;2022-10-16T13:52:41;21.52;47.25
71304;DHT22;59091;47.446;19.148;2022-10-16T13:55:15;21.49;48.07
71304;DHT22;59091;47.446;19.148;2022-10-16T13:57:41;21.53;48.89
71304;DHT22;59091;47.446;19.148;2022-10-16T14:00:25;21.52;48.80
71304;DHT22;59091;47.446;19.148;2022-10-16T14:03:01;21.59;47.54
71304;DHT22;59091;47.446;19.148;2022-10-16T14:05:27;21.61;46.74
71304;DHT22;59091;47.446;19.148;2022-10-16T14:07:54;21.61;47.13
71304;DHT22;59091;47.446;19.148;2022-10-16T14:13:02;21.59;47.49
71304;DHT22;59091;47.446;19.148;2022-10-16T14:15:30;21.49;47.20
71304;DHT22;59091;47.446;19.148;2022-10-16T14:17:57;21.49;47.00
71304;DHT22;59091;47.446;19.148;2022-10-16T14:20:26;21.45;45.92
71304;DHT22;59091;47.446;19.148;2022-10-16T14:23:03;21.45;47.15
71304;DHT22;59091;47.446;19.148;2022-10-16T14:25:31;21.46;47.83
71304;DHT22;59091;47.446;19.148;2022-10-16T14:28:18;21.39;47.40
71304;DHT22;59091;47.446;19.148;2022-10-16T14:30:54;21.39;47.21
71304;DHT22;59091;47.446;19.148;2022-10-16T14:38:26;21.35;47.52
71304;DHT22;59091;47.446;19.148;2022-10-16T14:40:52;21.31;47.61
71304;DHT22;59091;47.446;19.148;2022-10-16T14:43:24;21.32;47.02
71304;DHT22;59091;47.446;19.148;2022-10-16T14:45:53;21.27;46.93
71304;DHT22;59091;47.446;19.148;2022-10-16T14:48:19;21.27;46.79
71304;DHT22;59091;47.446;19.148;2022-10-16T14:50:46;21.25;46.71
71304;DHT22;59091;47.446;19.148;2022-10-16T14:53:11;21.24;46.87
71304;DHT22;59091;47.446;19.148;2022-10-16T14:55:38;21.22;46.68
71304;DHT22;59091;47.446;19.148;2022-10-16T14:58:04;21.15;47.67
71304;DHT22;59091;47.446;19.148;2022-10-16T15:00:30;21.14;47.51
71304;DHT22;59091;47.446;19.148;2022-10-16T15:02:55;21.11;47.72
71304;DHT22;59091;47.446;19.148;2022-10-16T15:05:22;21.08;47.88
71304;DHT22;59091;47.446;19.148;2022-10-16T15:07:49;21.02;48.03
71304;DHT22;59091;47.446;19.148;2022-10-16T15:10:16;21.01;48.71
71304;DHT22;59091;47.446;19.148;2022-10-16T15:12:42;21.01;48.73
71304;DHT22;59091;47.446;19.148;2022-10-16T15:17:57;20.90;48.68
71304;DHT22;59091;47.446;19.148;2022-10-16T15:20:27;20.88;49.10
71304;DHT22;59091;47.446;19.148;2022-10-16T15:22:53;20.88;49.87
71304;DHT22;59091;47.446;19.148;2022-10-16T15:25:30;20.83;49.92
71304;DHT22;59091;47.446;19.148;2022-10-16T15:27:57;20.84;50.14
71304;DHT22;59091;47.446;19.148;2022-10-16T15:30:23;20.83;50.13
71304;DHT22;59091;47.446;19.148;2022-10-16T15:32:49;20.79;50.43
71304;DHT22;59091;47.446;19.148;2022-10-16T15:35:14;20.77;50.80
71304;DHT22;59091;47.446;19.148;2022-10-16T15:37:39;20.70;51.10
71304;DHT22;59091;47.446;19.148;2022-10-16T15:40:05;20.59;51.46
71304;DHT22;59091;47.446;19.148;2022-10-16T15:42:31;20.56;51.51
71304;DHT22;59091;47.446;19.148;2022-10-16T15:44:56;20.51;51.70
71304;DHT22;59091;47.446;19.148;2022-10-16T15:47:21;20.44;52.09
71304;DHT22;59091;47.446;19.148;2022-10-16T15:49:47;20.40;52.32
71304;DHT22;59091;47.446;19.148;2022-10-16T15:52:12;20.37;52.47
71304;DHT22;59091;47.446;19.148;2022-10-16T15:54:38;20.33;52.67
71304;DHT22;59091;47.446;19.148;2022-10-16T15:57:03;20.30;52.56
71304;DHT22;59091;47.446;19.148;2022-10-16T15:59:28;20.16;52.47
71304;DHT22;59091;47.446;19.148;2022-10-16T16:01:54;20.06;52.79
71304;DHT22;59091;47.446;19.148;2022-10-16T16:04:19;19.91;53.22
71304;DHT22;59091;47.446;19.148;2022-10-16T16:06:44;19.82;53.82
71304;DHT22;59091;47.446;19.148;2022-10-16T16:09:11;19.67;54.25
71304;DHT22;59091;47.446;19.148;2022-10-16T16:11:37;19.57;54.52
71304;DHT22;59091;47.446;19.148;2022-10-16T16:14:05;19.44;54.82
71304;DHT22;59091;47.446;19.148;2022-10-16T16:16:31;19.31;55.24
71304;DHT22;59091;47.446;19.148;2022-10-16T16:19:02;19.20;55.74
71304;DHT22;59091;47.446;19.148;2022-10-16T16:21:27;19.09;56.06
71304;DHT22;59091;47.446;19.148;2022-10-16T16:23:52;18.97;56.59
71304;DHT22;59091;47.446;19.148;2022-10-16T16:26:26;18.86;56.93
71304;DHT22;59091;47.446;19.148;2022-10-16T16:28:53;18.82;57.97
71304;DHT22;59091;47.446;19.148;2022-10-16T16:31:20;18.73;58.48
71304;DHT22;59091;47.446;19.148;2022-10-16T16:33:46;18.65;59.02
71304;DHT22;59091;47.446;19.148;2022-10-16T16:36:12;18.60;59.47
71304;DHT22;59091;47.446;19.148;2022-10-16T16:38:38;18.53;59.85
71304;DHT22;59091;47.446;19.148;2022-10-16T16:41:17;18.44;59.98
71304;DHT22;59091;47.446;19.148;2022-10-16T16:43:43;18.35;60.70
71304;DHT22;59091;47.446;19.148;2022-10-16T16:46:08;18.39;61.10
71304;DHT22;59091;47.446;19.148;2022-10-16T16:48:34;18.34;61.04
71304;DHT22;59091;47.446;19.148;2022-10-16T16:51:04;18.28;61.22
71304;DHT22;59091;47.446;19.148;2022-10-16T16:53:33;18.25;61.38
71304;DHT22;59091;47.446;19.148;2022-10-16T16:56:04;18.22;61.50
71304;DHT22;59091;47.446;19.148;2022-10-16T16:58:30;18.18;62.06
71304;DHT22;59091;47.446;19.148;2022-10-16T17:00:56;18.12;62.25
71304;DHT22;59091;47.446;19.148;2022-10-16T17:03:21;18.09;62.92
71304;DHT22;59091;47.446;19.148;2022-10-16T17:06:04;18.02;63.00
71304;DHT22;59091;47.446;19.148;2022-10-16T17:08:30;18.02;63.29
71304;DHT22;59091;47.446;19.148;2022-10-16T17:10:56;17.97;63.34
71304;DHT22;59091;47.446;19.148;2022-10-16T17:13:26;17.98;63.47
71304;DHT22;59091;47.446;19.148;2022-10-16T17:15:53;17.94;63.78
71304;DHT22;59091;47.446;19.148;2022-10-16T17:18:20;17.90;63.99
71304;DHT22;59091;47.446;19.148;2022-10-16T17:20:46;17.90;64.51
71304;DHT22;59091;47.446;19.148;2022-10-16T17:23:15;17.87;65.33